Rijkevorsel, Belgium
Current Conditions -  °F | °C
As of 1:25 PM on Saturday 25 Oct 2014 (Local Time) from EHGR Reporting Station
Haze Haze  
Wind Chill: 57°   Ceiling: 400
Heat Index: 57°   Visibility: 1.8mi
Dew Point: 55°   Wind: 6mph
Humidity: 94%   Direction: 230°SW
Pressure: 30.06"   Gusts: NA
Location:  51.35°N, 4.76°E
Report Text: EHGR 251125Z AUTO 23005KT 3000 BR BKN004 OVC006 14/13 Q1018 YLO
Loading
Personal Weather Stations






























Interactive Weather Map New forecast layout! Learn more

10-Day Weather Forecast

Advertisements
Track Severe Weather on mobile